Time;durP1;ratioP1;P1;durP2;ratioP2;P2;SDS_P1;SDS_P2;PMS_P1;PMS_P2;Temp;Humidity;BMP_temperature;BMP_pressure;BME280_temperature;BME280_humidity;BME280_pressure;Samples;Min_cycle;Max_cycle;Signal;HPM_P1;HPM_P2
2023/04/25 00:01:27;;;;;;;1999.90;999.90;;;9.10;99.90;;;;;;5042115;28;20870;-74
2023/04/25 00:03:54;;;;;;;1999.90;999.90;;;9.00;99.90;;;;;;5047614;28;20467;-74
2023/04/25 00:06:26;;;;;;;1999.90;999.90;;;9.00;99.90;;;;;;5046611;28;20504;-72
2023/04/25 00:08:53;;;;;;;1999.90;999.90;;;8.90;99.90;;;;;;5046550;28;20437;-72
2023/04/25 00:11:19;;;;;;;1999.90;999.90;;;8.90;99.90;;;;;;5046848;28;20490;-71
2023/04/25 00:13:46;;;;;;;1999.90;999.90;;;8.90;99.90;;;;;;5053258;28;20497;-74
2023/04/25 00:16:14;;;;;;;1999.90;999.90;;;8.70;99.90;;;;;;5050743;28;20425;-71
2023/04/25 00:18:40;;;;;;;1999.90;999.90;;;8.70;99.90;;;;;;5049751;28;20432;-70
2023/04/25 00:21:07;;;;;;;1999.90;999.90;;;8.70;99.90;;;;;;5051091;28;20973;-69
2023/04/25 00:23:36;;;;;;;1999.90;999.90;;;8.70;99.90;;;;;;5051058;28;20591;-72
2023/04/25 00:26:03;;;;;;;1999.90;999.90;;;8.60;99.90;;;;;;5049469;28;20519;-72
2023/04/25 00:28:30;;;;;;;1999.90;999.90;;;8.60;99.90;;;;;;5050166;28;20801;-71
2023/04/25 00:30:56;;;;;;;1999.90;999.90;;;8.70;99.90;;;;;;5051221;28;20433;-73
2023/04/25 00:33:23;;;;;;;1999.90;999.90;;;8.80;99.90;;;;;;5049937;28;20440;-72
2023/04/25 00:35:50;;;;;;;1999.90;999.90;;;8.70;99.90;;;;;;5050463;28;20440;-73
2023/04/25 00:38:16;;;;;;;1999.90;999.90;;;8.60;99.90;;;;;;5042840;28;20490;-74
2023/04/25 00:40:44;;;;;;;1999.90;999.90;;;8.60;99.90;;;;;;5050304;28;20433;-70
2023/04/25 00:43:11;;;;;;;1999.90;999.90;;;8.60;99.90;;;;;;5051993;28;20437;-72
2023/04/25 00:45:39;;;;;;;1999.90;999.90;;;8.50;99.90;;;;;;5050825;28;20437;-75
2023/04/25 00:48:07;;;;;;;1999.90;999.90;;;8.60;99.90;;;;;;5051952;28;20486;-73
2023/04/25 00:50:34;;;;;;;1999.90;999.90;;;8.60;99.90;;;;;;5050776;28;20521;-74
2023/04/25 00:53:02;;;;;;;1999.90;999.90;;;8.60;99.90;;;;;;5049505;28;20494;-71
2023/04/25 00:55:29;;;;;;;1999.90;999.90;;;8.50;99.90;;;;;;5050989;28;20540;-73
2023/04/25 00:57:57;;;;;;;1999.90;999.90;;;8.50;99.90;;;;;;5051968;28;20436;-73
2023/04/25 01:00:23;;;;;;;1999.90;999.90;;;8.50;99.90;;;;;;5050775;28;20429;-73
2023/04/25 01:02:51;;;;;;;1999.90;999.90;;;8.60;99.90;;;;;;5046788;28;20437;-72
2023/04/25 01:05:18;;;;;;;1999.90;999.90;;;8.60;99.90;;;;;;5049598;28;20528;-71
2023/04/25 01:07:45;;;;;;;1999.90;999.90;;;8.70;99.90;;;;;;5049461;28;20986;-73
2023/04/25 01:10:12;;;;;;;1999.90;999.90;;;8.70;99.90;;;;;;5051407;28;20429;-81
2023/04/25 01:12:39;;;;;;;1999.90;999.90;;;8.60;99.90;;;;;;5049630;28;20429;-73
2023/04/25 01:15:07;;;;;;;1999.90;999.90;;;8.50;99.90;;;;;;5049465;28;20438;-74
2023/04/25 01:17:35;;;;;;;1999.90;999.90;;;8.50;99.90;;;;;;5051296;28;20441;-74
2023/04/25 01:20:05;;;;;;;1999.90;999.90;;;8.40;99.90;;;;;;5051308;28;20429;-72
2023/04/25 01:22:33;;;;;;;1999.90;999.90;;;8.40;99.90;;;;;;5051766;28;20435;-73
2023/04/25 01:25:01;;;;;;;1999.90;999.90;;;8.50;99.90;;;;;;5049904;28;20445;-74
2023/04/25 01:27:28;;;;;;;1999.90;999.90;;;8.50;99.90;;;;;;5051363;28;20437;-71
2023/04/25 01:29:56;;;;;;;1999.90;999.90;;;8.40;99.90;;;;;;5051614;28;20456;-74
2023/04/25 01:32:23;;;;;;;1999.90;999.90;;;8.40;99.90;;;;;;5051910;28;20615;-71
2023/04/25 01:34:50;;;;;;;1999.90;999.90;;;8.40;99.90;;;;;;5051472;28;20433;-71
2023/04/25 01:37:18;;;;;;;1999.90;999.90;;;8.40;99.90;;;;;;5051814;28;20433;-71
2023/04/25 01:39:46;;;;;;;1999.90;999.90;;;8.40;99.90;;;;;;5049310;28;20432;-71
2023/04/25 01:42:13;;;;;;;1999.90;999.90;;;8.40;99.90;;;;;;5052151;28;20483;-71
2023/04/25 01:44:40;;;;;;;1999.90;999.90;;;8.30;99.90;;;;;;5051323;28;20440;-71
2023/04/25 01:47:07;;;;;;;1999.90;999.90;;;8.20;99.90;;;;;;5050495;28;20429;-72
2023/04/25 01:49:34;;;;;;;1999.90;999.90;;;8.10;99.90;;;;;;5048849;28;20495;-74
2023/04/25 01:52:00;;;;;;;1999.90;999.90;;;8.10;99.90;;;;;;5049064;28;20432;-73
2023/04/25 01:54:27;;;;;;;1999.90;999.90;;;8.20;99.90;;;;;;5051242;28;20491;-73
2023/04/25 01:56:58;;;;;;;1999.90;999.90;;;8.20;99.90;;;;;;5050223;28;20433;-74
2023/04/25 01:59:25;;;;;;;1999.90;999.90;;;8.10;99.90;;;;;;5045000;28;20437;-71
2023/04/25 02:01:52;;;;;;;1999.90;999.90;;;8.10;99.90;;;;;;5049721;28;20426;-71
2023/04/25 02:04:18;;;;;;;1999.90;999.90;;;8.10;99.90;;;;;;5051435;28;20437;-72
2023/04/25 02:06:45;;;;;;;1999.90;999.90;;;8.10;99.90;;;;;;5046638;28;20433;-72
2023/04/25 02:09:12;;;;;;;1999.90;999.90;;;8.10;99.90;;;;;;5051034;28;20444;-71
2023/04/25 02:11:39;;;;;;;1999.90;999.90;;;8.20;99.90;;;;;;5050237;28;20436;-72
2023/04/25 02:14:07;;;;;;;1999.90;999.90;;;8.30;99.90;;;;;;5049848;28;20508;-74
2023/04/25 02:16:35;;;;;;;1999.90;999.90;;;8.30;99.90;;;;;;5043374;28;20830;-72
2023/04/25 02:19:02;;;;;;;1999.90;999.90;;;8.30;99.90;;;;;;5048279;28;21003;-74
2023/04/25 02:21:28;;;;;;;1999.90;999.90;;;8.30;99.90;;;;;;5049014;28;20433;-74
2023/04/25 02:23:55;;;;;;;1999.90;999.90;;;8.30;99.90;;;;;;5047872;28;20443;-70
2023/04/25 02:26:23;;;;;;;1999.90;999.90;;;8.30;99.90;;;;;;5049004;28;20429;-72
2023/04/25 02:28:50;;;;;;;1999.90;999.90;;;8.30;99.90;;;;;;5048057;28;20467;-72
2023/04/25 02:31:18;;;;;;;1999.90;999.90;;;8.40;99.90;;;;;;5047950;28;20532;-72
2023/04/25 02:33:45;;;;;;;1999.90;999.90;;;8.30;99.90;;;;;;5049080;28;20502;-69
2023/04/25 02:36:12;;;;;;;1999.90;999.90;;;8.30;99.90;;;;;;5047038;28;21201;-69
2023/04/25 02:38:39;;;;;;;1999.90;999.90;;;8.30;99.90;;;;;;5047288;28;20433;-70
2023/04/25 02:41:06;;;;;;;1999.90;999.90;;;8.30;99.90;;;;;;5048675;28;20433;-71
2023/04/25 02:43:32;;;;;;;1999.90;999.90;;;8.30;99.90;;;;;;5048900;28;20432;-71
2023/04/25 02:45:59;;;;;;;1999.90;999.90;;;8.20;99.90;;;;;;5048567;28;20433;-74
2023/04/25 02:48:28;;;;;;;1999.90;999.90;;;8.20;99.90;;;;;;5048441;28;20429;-74
2023/04/25 02:50:54;;;;;;;1999.90;999.90;;;8.20;99.90;;;;;;5048698;28;20520;-71
2023/04/25 02:53:21;;;;;;;1999.90;999.90;;;8.20;99.90;;;;;;5048284;28;20441;-72
2023/04/25 02:55:48;;;;;;;1999.90;999.90;;;8.20;99.90;;;;;;5048859;28;20429;-74
2023/04/25 02:58:15;;;;;;;1999.90;999.90;;;8.30;99.90;;;;;;5048732;28;20479;-73
2023/04/25 03:00:42;;;;;;;1999.90;999.90;;;8.30;99.90;;;;;;5047716;28;20431;-74
2023/04/25 03:03:08;;;;;;;1999.90;999.90;;;8.30;99.90;;;;;;5048918;28;20980;-74
2023/04/25 03:05:36;;;;;;;1999.90;999.90;;;8.20;99.90;;;;;;5047604;28;20543;-71
2023/04/25 03:08:03;;;;;;;1999.90;999.90;;;8.30;99.90;;;;;;5048472;28;20776;-73
2023/04/25 03:10:30;;;;;;;1999.90;999.90;;;8.40;99.90;;;;;;5049378;28;20429;-71
2023/04/25 03:12:57;;;;;;;1999.90;999.90;;;8.50;99.90;;;;;;5048592;28;20433;-73
2023/04/25 03:15:23;;;;;;;1999.90;999.90;;;8.40;99.90;;;;;;5048730;28;20838;-74
2023/04/25 03:17:50;;;;;;;1999.90;999.90;;;8.60;99.90;;;;;;5046144;28;20483;-74
2023/04/25 03:20:17;;;;;;;1999.90;999.90;;;8.40;99.90;;;;;;5047148;28;20440;-74
2023/04/25 03:22:45;;;;;;;1999.90;999.90;;;8.40;99.90;;;;;;5048216;28;20438;-73
2023/04/25 03:25:11;;;;;;;1999.90;999.90;;;8.50;99.90;;;;;;5045798;28;20433;-73
2023/04/25 03:27:38;;;;;;;1999.90;999.90;;;8.50;99.90;;;;;;5048854;28;20437;-73
2023/04/25 03:30:07;;;;;;;1999.90;999.90;;;8.50;99.90;;;;;;5048446;28;20516;-73
2023/04/25 03:32:34;;;;;;;1999.90;999.90;;;8.60;99.90;;;;;;5049265;28;20497;-71
2023/04/25 03:35:01;;;;;;;1999.90;999.90;;;8.50;99.90;;;;;;5047430;28;20436;-68
2023/04/25 03:37:28;;;;;;;1999.90;999.90;;;8.50;99.90;;;;;;5041177;28;20448;-74
2023/04/25 03:39:56;;;;;;;1999.90;999.90;;;8.40;99.90;;;;;;5047928;28;20433;-71
2023/04/25 03:42:23;;;;;;;1999.90;999.90;;;8.40;99.90;;;;;;5048346;28;20441;-71
2023/04/25 03:44:49;;;;;;;1999.90;999.90;;;8.40;99.90;;;;;;5045842;28;20441;-74
2023/04/25 03:47:16;;;;;;;1999.90;999.90;;;8.50;99.90;;;;;;5048078;28;20440;-72
2023/04/25 03:49:44;;;;;;;1999.90;999.90;;;8.50;99.90;;;;;;5050233;28;20515;-69
2023/04/25 03:52:11;;;;;;;1999.90;999.90;;;8.40;99.90;;;;;;5050936;28;20429;-73
2023/04/25 03:54:37;;;;;;;1999.90;999.90;;;8.50;99.90;;;;;;5052320;28;20432;-70
2023/04/25 03:57:05;;;;;;;1999.90;999.90;;;8.50;99.90;;;;;;5051934;28;20433;-68
2023/04/25 03:59:32;;;;;;;1999.90;999.90;;;8.60;99.90;;;;;;5050062;28;20985;-72
2023/04/25 04:01:59;;;;;;;1999.90;999.90;;;8.60;99.90;;;;;;5051390;28;20499;-74
2023/04/25 04:04:25;;;;;;;1999.90;999.90;;;8.40;99.90;;;;;;5052961;28;20439;-69
2023/04/25 04:06:52;;;;;;;1999.90;999.90;;;8.40;99.90;;;;;;5052089;28;20445;-72
2023/04/25 04:09:20;;;;;;;1999.90;999.90;;;8.40;99.90;;;;;;5053218;28;20520;-72
2023/04/25 04:11:47;;;;;;;1999.90;999.90;;;8.30;99.90;;;;;;5051713;28;20457;-67
2023/04/25 04:14:15;;;;;;;1999.90;999.90;;;8.10;99.90;;;;;;5052610;28;20440;-70
2023/04/25 04:16:42;;;;;;;1999.90;999.90;;;8.10;99.90;;;;;;5052541;28;20444;-72
2023/04/25 04:19:09;;;;;;;1999.90;999.90;;;8.10;99.90;;;;;;5051838;28;21004;-74
2023/04/25 04:21:35;;;;;;;1999.90;999.90;;;8.10;99.90;;;;;;5052031;28;20517;-71
2023/04/25 04:24:03;;;;;;;1999.90;999.90;;;8.10;99.90;;;;;;5050699;28;20943;-74
2023/04/25 04:26:31;;;;;;;1999.90;999.90;;;8.00;99.90;;;;;;5052278;28;20440;-74
2023/04/25 04:28:59;;;;;;;1999.90;999.90;;;8.10;99.90;;;;;;5051636;28;20814;-71
2023/04/25 04:31:27;;;;;;;1999.90;999.90;;;8.10;99.90;;;;;;5050321;28;20511;-68
2023/04/25 04:33:53;;;;;;;1999.90;999.90;;;8.10;99.90;;;;;;5051281;28;20918;-70
2023/04/25 04:36:21;;;;;;;1999.90;999.90;;;8.10;99.90;;;;;;5048417;28;20433;-72
2023/04/25 04:38:48;;;;;;;1999.90;999.90;;;8.10;99.90;;;;;;5050137;28;21144;-72
2023/04/25 04:41:15;;;;;;;1999.90;999.90;;;8.00;99.90;;;;;;5051884;28;20448;-71
2023/04/25 04:43:43;;;;;;;1999.90;999.90;;;8.00;99.90;;;;;;5052227;28;20981;-73
2023/04/25 04:46:12;;;;;;;1999.90;999.90;;;7.90;99.90;;;;;;5052624;28;20433;-71
2023/04/25 04:48:40;;;;;;;1999.90;999.90;;;7.90;99.90;;;;;;5051470;28;20437;-73
2023/04/25 04:51:07;;;;;;;1999.90;999.90;;;7.80;99.90;;;;;;5053410;28;20428;-71
2023/04/25 04:53:34;;;;;;;1999.90;999.90;;;7.50;99.90;;;;;;5053933;28;20433;-71
2023/04/25 04:56:01;;;;;;;1999.90;999.90;;;7.40;99.90;;;;;;5052249;28;20512;-72
2023/04/25 04:58:29;;;;;;;1999.90;999.90;;;7.40;99.90;;;;;;5051788;28;20429;-73
2023/04/25 05:00:56;;;;;;;1999.90;999.90;;;7.40;99.90;;;;;;5052676;28;20433;-74
2023/04/25 05:03:22;;;;;;;1999.90;999.90;;;7.40;99.90;;;;;;5050745;28;20433;-75
2023/04/25 05:05:50;;;;;;;1999.90;999.90;;;7.40;99.90;;;;;;5052970;28;20444;-72
2023/04/25 05:08:17;;;;;;;1999.90;999.90;;;7.40;99.90;;;;;;5051797;28;20960;-71
2023/04/25 05:10:44;;;;;;;1999.90;999.90;;;7.40;99.90;;;;;;5051068;28;20471;-72
2023/04/25 05:13:10;;;;;;;1999.90;999.90;;;7.30;99.90;;;;;;5050459;28;20425;-74
2023/04/25 05:15:37;;;;;;;1999.90;999.90;;;7.10;99.90;;;;;;5053865;28;20927;-72
2023/04/25 05:18:04;;;;;;;1999.90;999.90;;;6.90;99.90;;;;;;5051914;28;20850;-68
2023/04/25 05:20:31;;;;;;;1999.90;999.90;;;6.80;99.90;;;;;;5052602;28;20803;-70
2023/04/25 05:22:59;;;;;;;1999.90;999.90;;;6.80;99.90;;;;;;5050329;28;20977;-70
2023/04/25 05:25:27;;;;;;;1999.90;999.90;;;6.90;99.90;;;;;;5049551;28;20461;-72
2023/04/25 05:27:53;;;;;;;1999.90;999.90;;;6.90;99.90;;;;;;5049333;28;20479;-72
2023/04/25 05:30:20;;;;;;;1999.90;999.90;;;7.10;99.90;;;;;;5049312;28;20947;-70
2023/04/25 05:32:47;;;;;;;1999.90;999.90;;;7.10;99.90;;;;;;5050321;28;20659;-72
2023/04/25 05:35:14;;;;;;;1999.90;999.90;;;7.30;99.90;;;;;;5051553;28;20483;-73
2023/04/25 05:37:40;;;;;;;1999.90;999.90;;;7.40;99.90;;;;;;5049062;28;20428;-73
2023/04/25 05:40:10;;;;;;;1999.90;999.90;;;7.40;99.90;;;;;;5045668;28;20502;-72
2023/04/25 05:42:36;;;;;;;1999.90;999.90;;;7.60;99.90;;;;;;5041162;28;20789;-73
2023/04/25 05:45:04;;;;;;;1999.90;999.90;;;7.60;99.90;;;;;;5050045;28;20514;-73
2023/04/25 05:47:30;;;;;;;1999.90;999.90;;;7.80;99.90;;;;;;5048661;28;20429;-72
2023/04/25 05:49:57;;;;;;;1999.90;999.90;;;7.90;99.90;;;;;;5048995;28;20479;-73
2023/04/25 05:52:24;;;;;;;1999.90;999.90;;;7.90;99.90;;;;;;5047868;28;20433;-73
2023/04/25 05:54:51;;;;;;;1999.90;999.90;;;8.00;99.90;;;;;;5046061;28;20461;-72
2023/04/25 05:57:23;;;;;;;1999.90;999.90;;;8.00;99.90;;;;;;5046983;28;20881;-73
2023/04/25 05:59:50;;;;;;;1999.90;999.90;;;8.00;99.90;;;;;;5039317;28;20976;-74
2023/04/25 06:02:17;;;;;;;1999.90;999.90;;;7.90;99.90;;;;;;5046330;28;20433;-71
2023/04/25 06:04:43;;;;;;;1999.90;999.90;;;8.00;99.90;;;;;;5048774;28;21017;-72
2023/04/25 06:07:10;;;;;;;1999.90;999.90;;;8.00;99.90;;;;;;5048609;28;21111;-73
2023/04/25 06:09:38;;;;;;;1999.90;999.90;;;8.00;99.90;;;;;;5045236;28;20488;-72
2023/04/25 06:12:05;;;;;;;1999.90;999.90;;;7.90;99.90;;;;;;5047190;28;20530;-73
2023/04/25 06:14:33;;;;;;;1999.90;999.90;;;8.00;99.90;;;;;;5050208;28;20423;-73
2023/04/25 06:17:06;;;;;;;1999.90;999.90;;;8.10;99.90;;;;;;5048307;28;20441;-73
2023/04/25 06:19:32;;;;;;;1999.90;999.90;;;8.30;99.90;;;;;;5047821;28;20437;-71
2023/04/25 06:21:59;;;;;;;1999.90;999.90;;;8.40;99.90;;;;;;5048504;28;20441;-72
2023/04/25 06:24:26;;;;;;;1999.90;999.90;;;8.60;99.90;;;;;;5048971;28;20914;-71
2023/04/25 06:26:52;;;;;;;1999.90;999.90;;;8.80;99.90;;;;;;5042742;28;20432;-71
2023/04/25 06:29:19;;;;;;;1999.90;999.90;;;9.00;99.90;;;;;;5044398;28;20534;-70
2023/04/25 06:31:47;;;;;;;1999.90;999.90;;;9.00;99.90;;;;;;5046456;28;20421;-70
2023/04/25 06:34:15;;;;;;;1999.90;999.90;;;9.20;99.90;;;;;;5044145;28;20479;-73
2023/04/25 06:36:41;;;;;;;1999.90;999.90;;;9.20;99.90;;;;;;5046553;28;20433;-70
2023/04/25 06:39:08;;;;;;;1999.90;999.90;;;9.30;99.90;;;;;;5046430;28;20928;-69
2023/04/25 06:41:35;;;;;;;1999.90;999.90;;;9.50;99.90;;;;;;5048863;28;20463;-71
2023/04/25 06:44:02;;;;;;;1999.90;999.90;;;10.00;99.90;;;;;;5047754;28;20433;-69
2023/04/25 06:46:28;;;;;;;1999.90;999.90;;;10.30;99.90;;;;;;5046130;28;20437;-71
2023/04/25 06:48:56;;;;;;;1999.90;999.90;;;10.40;99.90;;;;;;5042595;28;20421;-72
2023/04/25 06:51:24;;;;;;;1999.90;999.90;;;10.70;99.90;;;;;;5048924;28;20433;-70
2023/04/25 06:53:51;;;;;;;1999.90;999.90;;;10.60;99.90;;;;;;5047469;28;20440;-72
2023/04/25 06:56:17;;;;;;;1999.90;999.90;;;10.80;99.90;;;;;;5050438;28;20842;-71
2023/04/25 06:58:44;;;;;;;1999.90;999.90;;;10.90;99.90;;;;;;5045451;28;20434;-70
2023/04/25 07:01:10;;;;;;;1999.90;999.90;;;10.60;99.90;;;;;;5046457;28;20421;-69
2023/04/25 07:03:37;;;;;;;1999.90;999.90;;;10.30;99.90;;;;;;5050427;28;20896;-71
2023/04/25 07:06:06;;;;;;;1999.90;999.90;;;10.20;99.90;;;;;;5050681;28;20841;-69
2023/04/25 07:08:33;;;;;;;1999.90;999.90;;;10.10;99.90;;;;;;5046762;28;20911;-71
2023/04/25 07:10:59;;;;;;;1999.90;999.90;;;10.00;99.90;;;;;;5045090;28;20469;-74
2023/04/25 07:13:26;;;;;;;1999.90;999.90;;;9.60;99.90;;;;;;5050226;28;20483;-72
2023/04/25 07:15:53;;;;;;;1999.90;999.90;;;9.50;99.90;;;;;;5050357;28;20408;-71
2023/04/25 07:18:19;;;;;;;1999.90;999.90;;;9.60;99.90;;;;;;5048202;28;21624;-71
2023/04/25 07:20:46;;;;;;;1999.90;999.90;;;9.60;99.90;;;;;;5050301;28;20421;-67
2023/04/25 07:23:14;;;;;;;1999.90;999.90;;;9.60;99.90;;;;;;5046055;28;20490;-71
2023/04/25 07:25:40;;;;;;;1999.90;999.90;;;9.80;99.90;;;;;;5041760;28;20911;-73
2023/04/25 07:28:07;;;;;;;1999.90;999.90;;;9.70;99.90;;;;;;5047876;28;20432;-71
2023/04/25 07:30:34;;;;;;;1999.90;999.90;;;9.50;99.90;;;;;;5046877;28;20519;-71
2023/04/25 07:33:01;;;;;;;1999.90;999.90;;;9.50;99.90;;;;;;5045691;28;20835;-71
2023/04/25 07:35:27;;;;;;;1999.90;999.90;;;9.60;99.90;;;;;;5046141;28;20437;-71
2023/04/25 07:37:54;;;;;;;1999.90;999.90;;;9.70;99.90;;;;;;5048020;28;20441;-71
2023/04/25 07:40:22;;;;;;;1999.90;999.90;;;9.80;99.90;;;;;;5044240;28;20441;-73
2023/04/25 07:42:49;;;;;;;1999.90;999.90;;;9.90;99.90;;;;;;5046026;28;20511;-69
2023/04/25 07:45:16;;;;;;;1999.90;999.90;;;9.60;99.90;;;;;;5047947;28;20434;-71
2023/04/25 07:47:43;;;;;;;1999.90;999.90;;;9.70;99.90;;;;;;5048577;28;20469;-70
2023/04/25 07:50:10;;;;;;;1999.90;999.90;;;9.50;99.90;;;;;;5045511;28;20429;-72
2023/04/25 07:52:37;;;;;;;1999.90;999.90;;;9.50;99.90;;;;;;5044740;28;20921;-73
2023/04/25 07:55:07;;;;;;;1999.90;999.90;;;9.40;99.90;;;;;;5039884;28;20850;-73
2023/04/25 07:57:35;;;;;;;1999.90;999.90;;;9.40;99.90;;;;;;5040855;28;20882;-72
2023/04/25 08:00:02;;;;;;;1999.90;999.90;;;9.40;99.90;;;;;;5036357;28;20544;-72
2023/04/25 08:02:28;;;;;;;1999.90;999.90;;;9.60;99.90;;;;;;5042894;28;20432;-74
2023/04/25 08:04:55;;;;;;;1999.90;999.90;;;9.50;99.90;;;;;;5042796;28;20899;-73
2023/04/25 08:07:21;;;;;;;1999.90;999.90;;;9.60;99.90;;;;;;5047778;28;20428;-75
2023/04/25 08:09:48;;;;;;;1999.90;999.90;;;9.60;99.90;;;;;;5044244;28;20437;-72
2023/04/25 08:12:15;;;;;;;1999.90;999.90;;;9.60;99.90;;;;;;5048297;28;20495;-74
2023/04/25 08:14:43;;;;;;;1999.90;999.90;;;9.40;99.90;;;;;;5047349;28;20487;-76
2023/04/25 08:17:10;;;;;;;1999.90;999.90;;;9.00;99.90;;;;;;5050266;28;20969;-75
2023/04/25 08:19:37;;;;;;;1999.90;999.90;;;8.90;99.90;;;;;;5044134;28;20425;-74
2023/04/25 08:22:04;;;;;;;1999.90;999.90;;;8.90;99.90;;;;;;5047180;28;20436;-73
2023/04/25 08:24:30;;;;;;;1999.90;999.90;;;9.20;99.90;;;;;;5044700;28;20512;-71
2023/04/25 08:26:58;;;;;;;1999.90;999.90;;;9.50;99.90;;;;;;5048523;28;20463;-70
2023/04/25 08:29:25;;;;;;;1999.90;999.90;;;9.60;99.90;;;;;;5046593;28;20425;-71
2023/04/25 08:31:53;;;;;;;1999.90;999.90;;;9.50;99.90;;;;;;5048779;28;20437;-67
2023/04/25 08:34:20;;;;;;;1999.90;999.90;;;9.50;99.90;;;;;;5049149;28;20426;-68
2023/04/25 08:36:47;;;;;;;1999.90;999.90;;;9.60;99.90;;;;;;5051918;28;20520;-74
2023/04/25 08:39:14;;;;;;;1999.90;999.90;;;9.80;99.90;;;;;;5050699;28;20495;-70
2023/04/25 08:41:42;;;;;;;1999.90;999.90;;;9.90;99.90;;;;;;5051409;28;20461;-71
2023/04/25 08:44:11;;;;;;;1999.90;999.90;;;9.60;99.90;;;;;;5050364;28;20518;-71
2023/04/25 08:46:40;;;;;;;1999.90;999.90;;;9.40;99.90;;;;;;5051392;28;20806;-74
2023/04/25 08:49:09;;;;;;;1999.90;999.90;;;9.20;99.90;;;;;;5050597;28;20433;-71
2023/04/25 08:51:45;;;;;;;1999.90;999.90;;;9.30;99.90;;;;;;5050865;28;20429;-71
2023/04/25 08:54:13;;;;;;;1999.90;999.90;;;9.30;99.90;;;;;;5050933;28;20907;-74
2023/04/25 08:56:41;;;;;;;1999.90;999.90;;;9.30;99.90;;;;;;5049173;28;20820;-74
2023/04/25 08:59:08;;;;;;;1999.90;999.90;;;9.50;99.90;;;;;;5048696;28;20443;-72
2023/04/25 09:01:36;;;;;;;1999.90;999.90;;;9.90;99.90;;;;;;5047995;28;20422;-73
2023/04/25 09:04:03;;;;;;;1999.90;999.90;;;9.80;99.90;;;;;;5049846;28;20429;-71
2023/04/25 09:06:31;;;;;;;1999.90;999.90;;;10.00;99.90;;;;;;5051671;28;20607;-72
2023/04/25 09:09:06;;;;;;;1999.90;999.90;;;10.20;99.90;;;;;;5052841;28;20420;-74
2023/04/25 09:11:33;;;;;;;1999.90;999.90;;;10.40;99.90;;;;;;5053263;28;20496;-74
2023/04/25 09:14:13;;;;;;;1999.90;999.90;;;10.70;99.90;;;;;;5050978;28;20431;-71
2023/04/25 09:17:02;;;;;;;1999.90;999.90;;;11.40;99.90;;;;;;5050659;28;20433;-74
2023/04/25 09:19:30;;;;;;;1999.90;999.90;;;11.40;99.90;;;;;;5053480;28;20446;-75
2023/04/25 09:22:00;;;;;;;1999.90;999.90;;;11.10;99.90;;;;;;5054734;28;20965;-73
2023/04/25 09:24:34;;;;;;;1999.90;999.90;;;10.40;99.90;;;;;;5052271;28;20969;-71
2023/04/25 09:27:01;;;;;;;1999.90;999.90;;;9.90;99.90;;;;;;5050483;28;20440;-74
2023/04/25 09:29:31;;;;;;;1999.90;999.90;;;9.70;99.90;;;;;;5052806;28;20436;-74
2023/04/25 09:32:17;;;;;;;1999.90;999.90;;;9.70;99.90;;;;;;5053853;28;20433;-73
2023/04/25 09:34:47;;;;;;;1999.90;999.90;;;9.70;99.90;;;;;;5055097;28;20471;-74
2023/04/25 09:37:18;;;;;;;1999.90;999.90;;;10.10;99.90;;;;;;5052568;28;20427;-72
2023/04/25 09:39:46;;;;;;;1999.90;999.90;;;10.40;99.90;;;;;;5048974;28;20435;-72
2023/04/25 09:42:14;;;;;;;1999.90;999.90;;;10.70;99.90;;;;;;5050279;28;20425;-76
2023/04/25 09:44:44;;;;;;;1999.90;999.90;;;10.90;99.90;;;;;;5049686;28;20425;-74
2023/04/25 09:47:12;;;;;;;1999.90;999.90;;;10.90;99.90;;;;;;5052136;28;20508;-75
2023/04/25 09:49:41;;;;;;;1999.90;999.90;;;11.00;99.90;;;;;;5053418;28;20464;-71
2023/04/25 09:52:09;;;;;;;1999.90;999.90;;;11.00;99.90;;;;;;5052752;28;20546;-71
2023/04/25 09:54:37;;;;;;;1999.90;999.90;;;10.60;99.90;;;;;;5054625;28;20425;-72
2023/04/25 09:57:10;;;;;;;1999.90;999.90;;;10.40;99.90;;;;;;5053866;28;20428;-72
2023/04/25 09:59:40;;;;;;;1999.90;999.90;;;10.20;99.90;;;;;;5053704;28;20417;-73
2023/04/25 10:02:09;;;;;;;1999.90;999.90;;;9.90;99.90;;;;;;5053020;28;20788;-74
2023/04/25 10:04:36;;;;;;;1999.90;999.90;;;9.70;99.90;;;;;;5044822;28;20818;-72
2023/04/25 10:07:06;;;;;;;1999.90;999.90;;;9.70;99.90;;;;;;5052830;28;20520;-73
2023/04/25 10:09:37;;;;;;;1999.90;999.90;;;9.80;99.90;;;;;;5045072;28;21464;-72
2023/04/25 10:12:06;;;;;;;1999.90;999.90;;;9.80;98.70;;;;;;5053491;28;20413;-74
2023/04/25 10:14:32;;;;;;;1999.90;999.90;;;9.90;98.30;;;;;;5052735;28;20421;-72
2023/04/25 10:16:59;;;;;;;1999.90;999.90;;;9.90;98.00;;;;;;5045434;28;20433;-73
2023/04/25 10:19:27;;;;;;;1999.90;999.90;;;9.90;98.00;;;;;;5047864;28;21457;-72
2023/04/25 10:21:59;;;;;;;1999.90;999.90;;;9.90;98.80;;;;;;5049126;28;20436;-73
2023/04/25 10:24:26;;;;;;;1999.90;999.90;;;10.10;98.60;;;;;;5049561;28;20436;-74
2023/04/25 10:26:53;;;;;;;1999.90;999.90;;;10.50;98.50;;;;;;5044842;28;20430;-71
2023/04/25 10:29:26;;;;;;;1999.90;999.90;;;11.00;98.30;;;;;;5046052;28;20486;-73
2023/04/25 10:31:53;;;;;;;1999.90;999.90;;;11.50;96.80;;;;;;5043450;28;20911;-70
2023/04/25 10:34:24;;;;;;;1999.90;999.90;;;11.40;94.20;;;;;;5050156;28;20459;-75
2023/04/25 10:36:52;;;;;;;1999.90;999.90;;;11.10;93.80;;;;;;5048818;28;20429;-74
2023/04/25 10:39:24;;;;;;;1999.90;999.90;;;11.00;95.80;;;;;;5048834;28;20532;-71
2023/04/25 10:41:55;;;;;;;1999.90;999.90;;;11.00;95.90;;;;;;5047894;28;20441;-74
2023/04/25 10:44:26;;;;;;;1999.90;999.90;;;10.90;95.90;;;;;;5048009;28;20437;-71
2023/04/25 10:46:55;;;;;;;1999.90;999.90;;;11.20;96.20;;;;;;5044434;28;20433;-69
2023/04/25 10:49:33;;;;;;;1999.90;999.90;;;11.40;95.50;;;;;;5045911;28;20846;-72
2023/04/25 10:52:13;;;;;;;1999.90;999.90;;;11.50;95.10;;;;;;5043816;28;20437;-72
2023/04/25 10:54:42;;;;;;;1999.90;999.90;;;11.10;95.20;;;;;;5049297;28;20424;-72
2023/04/25 10:57:28;;;;;;;1999.90;999.90;;;10.60;95.70;;;;;;5048746;28;20441;-73
2023/04/25 10:59:59;;;;;;;1999.90;999.90;;;10.40;96.60;;;;;;5045442;28;20436;-73
2023/04/25 11:02:28;;;;;;;1999.90;999.90;;;10.40;96.70;;;;;;5047190;28;20429;-73
2023/04/25 11:04:55;;;;;;;1999.90;999.90;;;10.50;96.50;;;;;;5047423;28;20791;-73
2023/04/25 11:07:31;;;;;;;1999.90;999.90;;;10.40;97.10;;;;;;5048477;28;21059;-70
2023/04/25 11:09:58;;;;;;;1999.90;999.90;;;10.50;97.80;;;;;;5046487;28;20437;-73
2023/04/25 11:12:26;;;;;;;1999.90;999.90;;;11.00;98.30;;;;;;5048809;28;20854;-74
2023/04/25 11:15:01;;;;;;;1999.90;999.90;;;11.10;96.50;;;;;;5049527;28;20502;-73
2023/04/25 11:17:29;;;;;;;1999.90;999.90;;;11.20;97.60;;;;;;5046485;28;20491;-71
2023/04/25 11:19:56;;;;;;;1999.90;999.90;;;11.70;97.50;;;;;;5047749;28;20433;-71
2023/04/25 11:22:24;;;;;;;1999.90;999.90;;;12.10;96.00;;;;;;5048199;28;20429;-72
2023/04/25 11:24:51;;;;;;;1999.90;999.90;;;12.40;95.60;;;;;;5047061;28;20850;-72
2023/04/25 11:27:17;;;;;;;1999.90;999.90;;;12.40;94.00;;;;;;5044865;28;20791;-73
2023/04/25 11:29:44;;;;;;;1999.90;999.90;;;12.30;93.80;;;;;;5047192;28;20436;-70
2023/04/25 11:32:12;;;;;;;1999.90;999.90;;;12.30;93.80;;;;;;5047497;28;20911;-71
2023/04/25 11:34:39;;;;;;;1999.90;999.90;;;11.90;93.80;;;;;;5047040;28;20455;-70
2023/04/25 11:37:06;;;;;;;1999.90;999.90;;;11.80;94.70;;;;;;5045989;28;20433;-72
2023/04/25 11:39:33;;;;;;;1999.90;999.90;;;11.60;95.30;;;;;;5035866;28;20458;-72
2023/04/25 11:42:01;;;;;;;1999.90;999.90;;;11.70;95.20;;;;;;5046898;28;20486;-69
2023/04/25 11:44:28;;;;;;;1999.90;999.90;;;11.90;95.50;;;;;;5045127;28;20520;-71
2023/04/25 11:46:56;;;;;;;1999.90;999.90;;;11.80;95.70;;;;;;5033131;28;20921;-72
2023/04/25 11:49:25;;;;;;;1999.90;999.90;;;11.90;95.70;;;;;;5043033;28;20437;-72
2023/04/25 11:51:51;;;;;;;1999.90;999.90;;;12.10;94.70;;;;;;5038153;28;20446;-72
2023/04/25 11:54:18;;;;;;;1999.90;999.90;;;12.10;95.00;;;;;;5045657;28;20543;-70
2023/04/25 11:56:45;;;;;;;1999.90;999.90;;;12.00;93.70;;;;;;5044290;28;20459;-72
2023/04/25 11:59:12;;;;;;;1999.90;999.90;;;11.90;94.30;;;;;;5046807;28;20434;-71
2023/04/25 12:01:40;;;;;;;1999.90;999.90;;;12.10;94.40;;;;;;5048523;28;20490;-74
2023/04/25 12:04:15;;;;;;;1999.90;999.90;;;12.00;93.30;;;;;;5046025;28;20428;-74
2023/04/25 12:06:47;;;;;;;1999.90;999.90;;;12.10;93.30;;;;;;5048366;28;20425;-73
2023/04/25 12:09:15;;;;;;;1999.90;999.90;;;12.20;91.60;;;;;;5052666;28;20432;-71